Time;durP1;ratioP1;P1;durP2;ratioP2;P2;SDS_P1;SDS_P2;PMS_P1;PMS_P2;Temp;Humidity;BMP_temperature;BMP_pressure;BME280_temperature;BME280_humidity;BME280_pressure;Samples;Min_cycle;Max_cycle;Signal;HPM_P1;HPM_P2
2021/11/11 00:02:20;;;;;;;37.63;24.23;;;6.00;99.90;;;;;;5060321;28;20074;-95
2021/11/11 00:04:45;;;;;;;40.25;23.00;;;5.80;99.90;;;;;;5059357;28;20028;-96
2021/11/11 00:07:11;;;;;;;41.42;24.13;;;6.50;99.90;;;;;;5060250;28;20031;-95
2021/11/11 00:09:37;;;;;;;64.03;32.25;;;6.00;99.90;;;;;;5068208;28;20052;-95
2021/11/11 00:12:03;;;;;;;215.02;79.32;;;6.40;99.90;;;;;;5076047;28;20287;-94
2021/11/11 00:14:29;;;;;;;48.78;27.75;;;6.10;99.90;;;;;;5059466;28;20017;-96
2021/11/11 00:16:54;;;;;;;43.38;24.83;;;6.20;99.90;;;;;;5059725;28;20098;-94
2021/11/11 00:19:20;;;;;;;169.18;63.22;;;6.20;99.90;;;;;;5068066;28;20028;-95
2021/11/11 00:21:46;;;;;;;41.28;24.83;;;6.20;99.90;;;;;;5059147;28;20021;-95
2021/11/11 00:24:12;;;;;;;49.13;26.83;;;6.30;99.90;;;;;;5070753;28;20018;-96
2021/11/11 00:26:38;;;;;;;49.00;26.65;;;6.10;99.90;;;;;;5055136;28;20060;-95
2021/11/11 00:29:04;;;;;;;92.82;40.65;;;6.50;99.90;;;;;;5068828;28;20103;-95
2021/11/11 00:31:29;;;;;;;130.27;54.72;;;6.20;99.90;;;;;;5058990;28;20029;-95
2021/11/11 00:33:55;;;;;;;116.57;50.67;;;6.10;99.90;;;;;;5076392;28;20027;-95
2021/11/11 00:36:21;;;;;;;76.35;38.75;;;6.40;99.90;;;;;;5064305;28;20068;-95
2021/11/11 00:38:47;;;;;;;113.53;50.40;;;6.10;99.90;;;;;;5051989;28;20097;-95
2021/11/11 00:41:14;;;;;;;104.18;48.17;;;6.10;99.90;;;;;;5061279;28;20047;-95
2021/11/11 00:43:40;;;;;;;74.35;38.47;;;6.30;99.90;;;;;;5067824;28;20136;-95
2021/11/11 00:46:06;;;;;;;122.93;58.55;;;6.20;99.90;;;;;;5058807;28;20100;-94
2021/11/11 00:48:32;;;;;;;64.20;34.80;;;6.00;99.90;;;;;;5043780;28;20063;-93
2021/11/11 00:50:58;;;;;;;52.50;29.27;;;6.40;99.90;;;;;;5050959;28;20028;-94
2021/11/11 00:53:24;;;;;;;59.70;31.98;;;6.10;99.90;;;;;;5036396;28;20033;-95
2021/11/11 00:55:49;;;;;;;52.65;28.45;;;6.10;99.90;;;;;;5054532;28;20056;-95
2021/11/11 00:58:15;;;;;;;40.58;24.35;;;6.00;99.90;;;;;;5056094;28;20513;-95
2021/11/11 01:00:41;;;;;;;44.88;26.00;;;5.90;99.90;;;;;;5057523;28;20031;-95
2021/11/11 01:03:09;;;;;;;46.90;26.10;;;6.00;99.90;;;;;;5058079;28;20028;-95
2021/11/11 01:05:35;;;;;;;44.42;26.38;;;5.80;99.90;;;;;;5076621;28;20024;-95
2021/11/11 01:08:02;;;;;;;46.58;26.35;;;6.10;99.90;;;;;;5075925;28;20500;-95
2021/11/11 01:10:28;;;;;;;47.50;26.13;;;6.00;99.90;;;;;;5053892;28;20500;-95
2021/11/11 01:12:56;;;;;;;46.10;25.73;;;6.00;99.90;;;;;;5048043;28;20044;-95
2021/11/11 01:15:25;;;;;;;44.92;26.42;;;6.00;99.90;;;;;;5031928;28;20040;-95
2021/11/11 01:17:51;;;;;;;46.03;26.92;;;6.10;99.90;;;;;;5036212;28;20084;-95
2021/11/11 01:20:18;;;;;;;50.95;27.15;;;6.20;99.90;;;;;;5018883;28;20026;-94
2021/11/11 01:22:46;;;;;;;50.65;28.30;;;6.60;99.90;;;;;;5036121;28;20465;-95
2021/11/11 01:25:15;;;;;;;48.10;26.60;;;6.30;99.90;;;;;;5031095;28;20032;-94
2021/11/11 01:27:41;;;;;;;45.88;26.65;;;6.20;99.90;;;;;;5038115;28;20128;-94
2021/11/11 01:30:07;;;;;;;50.05;28.33;;;6.20;99.90;;;;;;5051564;28;20022;-95
2021/11/11 01:32:34;;;;;;;47.20;27.38;;;6.20;99.90;;;;;;5035706;28;20025;-95
2021/11/11 01:34:59;;;;;;;48.35;27.40;;;6.10;99.90;;;;;;5053709;28;20037;-95
2021/11/11 01:37:25;;;;;;;43.70;26.25;;;6.10;99.90;;;;;;5055460;28;20565;-95
2021/11/11 01:39:51;;;;;;;44.83;26.38;;;6.40;99.90;;;;;;5045172;28;20112;-95
2021/11/11 01:42:16;;;;;;;46.35;26.80;;;6.20;99.90;;;;;;5022218;28;20048;-95
2021/11/11 01:44:53;;;;;;;47.35;26.40;;;6.20;99.90;;;;;;5075291;28;20031;-95
2021/11/11 01:47:20;;;;;;;50.00;27.33;;;6.20;99.90;;;;;;5017724;28;20087;-94
2021/11/11 01:49:46;;;;;;;48.05;26.08;;;6.20;99.90;;;;;;5035408;28;20092;-94
2021/11/11 01:52:13;;;;;;;45.70;26.17;;;6.20;99.90;;;;;;5035380;28;20025;-95
2021/11/11 01:54:40;;;;;;;48.10;26.17;;;6.20;99.90;;;;;;5034871;28;20033;-94
2021/11/11 01:57:06;;;;;;;45.65;25.50;;;6.20;99.90;;;;;;5020091;28;20397;-94
2021/11/11 01:59:33;;;;;;;41.35;23.25;;;6.20;99.90;;;;;;5054732;28;20056;-95
2021/11/11 02:01:59;;;;;;;40.25;24.10;;;6.10;99.90;;;;;;5053538;28;20048;-95
2021/11/11 02:04:25;;;;;;;41.85;25.80;;;5.90;99.90;;;;;;5053474;28;20033;-95
2021/11/11 02:06:51;;;;;;;52.42;28.13;;;6.00;99.90;;;;;;5047449;28;20041;-94
2021/11/11 02:09:18;;;;;;;46.55;25.92;;;6.10;99.90;;;;;;5052454;28;20119;-94
2021/11/11 02:11:44;;;;;;;44.90;25.60;;;6.40;99.90;;;;;;5054731;28;20482;-95
2021/11/11 02:14:10;;;;;;;46.72;26.13;;;6.00;99.90;;;;;;5017235;28;20025;-93
2021/11/11 02:16:36;;;;;;;43.15;24.95;;;6.20;99.90;;;;;;5050672;28;20104;-95
2021/11/11 02:19:03;;;;;;;43.58;25.70;;;6.10;99.90;;;;;;5053200;28;20055;-95
2021/11/11 02:21:28;;;;;;;49.47;27.00;;;6.00;99.90;;;;;;5054705;28;20032;-95
2021/11/11 02:23:54;;;;;;;43.63;25.25;;;6.40;99.90;;;;;;5053716;28;20036;-95
2021/11/11 02:26:19;;;;;;;45.40;26.48;;;6.10;99.90;;;;;;5054967;28;20020;-95
2021/11/11 02:28:46;;;;;;;46.17;26.05;;;6.10;99.90;;;;;;5053821;28;20116;-95
2021/11/11 02:31:12;;;;;;;48.10;27.02;;;6.10;99.90;;;;;;5036744;28;20033;-94
2021/11/11 02:33:37;;;;;;;51.38;27.65;;;6.10;99.90;;;;;;5054247;28;20036;-95
2021/11/11 02:36:04;;;;;;;46.28;27.00;;;6.20;99.90;;;;;;5053742;28;20036;-95
2021/11/11 02:38:30;;;;;;;45.38;25.50;;;6.10;99.90;;;;;;5036684;28;20025;-95
2021/11/11 02:40:56;;;;;;;49.35;26.98;;;6.50;99.90;;;;;;5053656;28;20028;-94
2021/11/11 02:43:25;;;;;;;50.00;26.98;;;6.50;99.90;;;;;;5041880;28;20156;-95
2021/11/11 02:45:51;;;;;;;47.33;25.58;;;6.40;99.90;;;;;;5016755;28;20033;-95
2021/11/11 02:48:23;;;;;;;49.85;27.67;;;6.00;99.90;;;;;;5022147;28;20592;-95
2021/11/11 02:50:51;;;;;;;54.05;27.05;;;6.00;99.90;;;;;;5035186;28;20493;-94
2021/11/11 02:53:17;;;;;;;61.15;35.85;;;6.00;99.90;;;;;;5016960;28;20034;-95
2021/11/11 02:55:43;;;;;;;65.00;38.10;;;6.10;99.90;;;;;;5032791;28;20021;-94
2021/11/11 02:58:09;;;;;;;70.82;40.58;;;6.10;99.90;;;;;;5062475;28;20496;-95
2021/11/11 03:00:50;;;;;;;60.88;31.50;;;6.00;99.90;;;;;;5065097;28;20021;-95
2021/11/11 03:03:16;;;;;;;55.97;29.75;;;6.00;99.90;;;;;;5056534;28;20025;-95
2021/11/11 03:05:42;;;;;;;51.97;28.80;;;5.90;99.90;;;;;;5058516;28;20094;-95
2021/11/11 03:08:08;;;;;;;54.70;29.83;;;6.10;99.90;;;;;;5063973;28;20039;-95
2021/11/11 03:10:38;;;;;;;60.08;30.85;;;6.00;99.90;;;;;;5047083;28;20074;-94
2021/11/11 03:13:03;;;;;;;60.70;30.67;;;6.00;99.90;;;;;;5032484;28;20062;-95
2021/11/11 03:15:30;;;;;;;59.58;30.25;;;6.10;99.90;;;;;;5057026;28;20021;-95
2021/11/11 03:17:56;;;;;;;63.67;31.13;;;6.10;99.90;;;;;;5057975;28;20029;-95
2021/11/11 03:20:22;;;;;;;58.08;30.58;;;6.10;99.90;;;;;;5040179;28;20036;-94
2021/11/11 03:22:48;;;;;;;59.15;31.10;;;6.10;99.90;;;;;;5056637;28;20025;-94
2021/11/11 03:25:17;;;;;;;58.65;30.70;;;6.10;99.90;;;;;;5071852;28;20395;-95
2021/11/11 03:27:42;;;;;;;58.00;30.42;;;6.20;99.90;;;;;;5068829;28;20496;-95
2021/11/11 03:30:12;;;;;;;58.63;30.50;;;6.00;99.90;;;;;;5057538;28;20035;-95
2021/11/11 03:32:38;;;;;;;60.03;31.30;;;5.90;99.90;;;;;;5057769;28;20094;-95
2021/11/11 03:35:04;;;;;;;62.42;31.88;;;6.00;99.90;;;;;;5058291;28;20028;-95
2021/11/11 03:37:30;;;;;;;64.35;32.17;;;6.00;99.90;;;;;;5039903;28;20022;-95
2021/11/11 03:39:56;;;;;;;57.17;30.92;;;6.20;99.90;;;;;;5063689;28;20032;-95
2021/11/11 03:42:22;;;;;;;63.05;31.60;;;6.20;99.90;;;;;;5077634;28;20086;-95
2021/11/11 03:44:48;;;;;;;58.55;30.40;;;6.70;99.90;;;;;;5077781;28;20021;-94
2021/11/11 03:47:14;;;;;;;56.78;29.63;;;6.10;99.90;;;;;;5057340;28;20036;-94
2021/11/11 03:49:40;;;;;;;59.70;31.38;;;6.50;99.90;;;;;;5057934;28;20399;-95
2021/11/11 03:52:06;;;;;;;62.80;32.33;;;6.20;99.90;;;;;;5061245;28;20074;-94
2021/11/11 03:54:33;;;;;;;59.75;31.52;;;6.20;99.90;;;;;;5077206;28;20445;-94
2021/11/11 03:56:59;;;;;;;53.78;30.48;;;6.40;99.90;;;;;;5059225;28;20024;-95
2021/11/11 03:59:26;;;;;;;56.47;30.17;;;6.50;99.90;;;;;;5059001;28;20457;-94
2021/11/11 04:01:52;;;;;;;54.42;29.27;;;6.60;99.90;;;;;;5071670;28;20017;-95
2021/11/11 04:04:18;;;;;;;54.85;28.92;;;6.30;99.90;;;;;;5063189;28;20021;-95
2021/11/11 04:06:44;;;;;;;50.90;28.48;;;6.40;99.90;;;;;;5057013;28;20124;-94
2021/11/11 04:09:10;;;;;;;56.03;28.60;;;6.20;99.90;;;;;;5057164;28;20087;-94
2021/11/11 04:11:35;;;;;;;53.90;29.52;;;6.20;99.90;;;;;;5059191;28;20024;-95
2021/11/11 04:14:02;;;;;;;51.08;28.85;;;6.20;99.90;;;;;;5075473;28;20036;-95
2021/11/11 04:16:28;;;;;;;51.00;27.67;;;6.30;99.90;;;;;;5076930;28;20039;-94
2021/11/11 04:18:54;;;;;;;47.85;28.17;;;5.90;99.90;;;;;;5057996;28;20038;-94
2021/11/11 04:21:20;;;;;;;47.63;26.85;;;5.90;99.90;;;;;;5043977;28;20036;-95
2021/11/11 04:23:47;;;;;;;49.63;27.33;;;6.00;99.90;;;;;;5076788;28;20024;-95
2021/11/11 04:29:08;;;;;;;47.85;26.45;;;5.90;99.90;;;;;;5059639;28;20440;-95
2021/11/11 04:31:38;;;;;;;44.53;25.70;;;6.40;99.90;;;;;;5063347;28;20035;-94
2021/11/11 04:34:08;;;;;;;44.35;25.27;;;5.80;99.90;;;;;;5076696;28;20029;-95
2021/11/11 04:46:59;;;;;;;42.58;24.45;;;5.70;99.90;;;;;;5041342;28;20577;-95
2021/11/11 05:00:17;;;;;;;42.75;24.90;;;5.50;99.90;;;;;;5039226;28;20036;-95
2021/11/11 05:05:19;;;;;;;43.75;25.10;;;5.40;99.90;;;;;;5069920;28;20028;-95
2021/11/11 05:07:44;;;;;;;43.47;25.02;;;5.80;99.90;;;;;;5075992;28;20039;-95
2021/11/11 05:10:10;;;;;;;41.63;24.23;;;5.30;99.90;;;;;;5076763;28;20028;-95
2021/11/11 05:12:36;;;;;;;46.40;25.67;;;5.30;99.90;;;;;;5075856;28;20120;-94
2021/11/11 05:15:03;;;;;;;46.83;26.42;;;5.30;99.90;;;;;;5072349;28;20155;-95
2021/11/11 05:17:29;;;;;;;42.97;25.15;;;5.30;99.90;;;;;;5038002;28;20021;-95
2021/11/11 05:19:54;;;;;;;43.13;24.55;;;5.30;99.90;;;;;;5056064;28;20124;-95
2021/11/11 05:22:21;;;;;;;44.55;25.75;;;5.20;99.90;;;;;;5056243;28;20507;-95
2021/11/11 05:24:47;;;;;;;45.33;25.40;;;5.20;99.90;;;;;;5027810;28;20025;-95
2021/11/11 05:27:14;;;;;;;44.80;24.80;;;5.50;99.90;;;;;;5035834;28;20029;-95
2021/11/11 05:29:40;;;;;;;46.92;24.80;;;5.10;99.90;;;;;;5036087;28;20055;-95
2021/11/11 05:32:06;;;;;;;46.35;25.27;;;5.10;99.90;;;;;;5019298;28;20036;-94
2021/11/11 05:34:32;;;;;;;46.25;25.65;;;5.10;99.90;;;;;;5041443;28;20063;-94
2021/11/11 05:36:58;;;;;;;44.53;25.48;;;5.20;99.90;;;;;;5075570;28;20024;-94
2021/11/11 05:39:24;;;;;;;44.33;24.73;;;5.30;99.90;;;;;;5057988;28;20120;-96
2021/11/11 05:41:49;;;;;;;49.75;25.77;;;5.00;99.90;;;;;;5057202;28;20025;-95
2021/11/11 05:44:15;;;;;;;51.92;26.90;;;5.00;99.90;;;;;;5075065;28;20103;-94
2021/11/11 05:46:41;;;;;;;51.00;25.17;;;5.00;99.90;;;;;;5040404;28;20065;-95
2021/11/11 05:49:07;;;;;;;42.53;24.42;;;5.00;99.90;;;;;;5042699;28;20025;-94
2021/11/11 05:51:33;;;;;;;45.50;25.50;;;4.90;99.90;;;;;;5044627;28;20028;-93
2021/11/11 05:53:58;;;;;;;43.08;24.17;;;4.90;99.90;;;;;;5070705;28;20056;-95
2021/11/11 05:56:24;;;;;;;44.83;24.92;;;5.00;99.90;;;;;;5071816;28;20024;-94
2021/11/11 05:58:49;;;;;;;45.38;24.70;;;5.00;99.90;;;;;;5039676;28;20056;-95
2021/11/11 06:01:15;;;;;;;43.25;23.55;;;4.90;99.90;;;;;;5074221;28;20116;-95
2021/11/11 06:03:41;;;;;;;44.95;25.88;;;4.90;99.90;;;;;;5063939;28;20401;-94
2021/11/11 06:06:06;;;;;;;43.17;24.80;;;4.90;99.90;;;;;;5052818;28;20033;-95
2021/11/11 06:08:32;;;;;;;86.70;46.15;;;5.00;99.90;;;;;;5034136;28;20029;-95
2021/11/11 06:10:58;;;;;;;53.70;27.98;;;5.00;99.90;;;;;;5066901;28;20042;-95
2021/11/11 06:13:27;;;;;;;42.97;24.90;;;4.90;99.90;;;;;;5060002;28;20086;-95
2021/11/11 06:15:52;;;;;;;41.80;23.88;;;4.90;99.90;;;;;;5057833;28;20487;-95
2021/11/11 06:18:20;;;;;;;44.80;24.23;;;5.00;99.90;;;;;;5053821;28;20025;-95
2021/11/11 06:20:49;;;;;;;42.67;24.08;;;5.00;99.90;;;;;;5053793;28;20470;-95
2021/11/11 06:23:15;;;;;;;40.50;23.83;;;5.00;99.90;;;;;;5069930;28;20027;-95
2021/11/11 06:25:41;;;;;;;53.22;30.50;;;5.10;99.90;;;;;;5056656;28;20020;-95
2021/11/11 06:28:08;;;;;;;64.53;32.60;;;4.90;99.90;;;;;;5074661;28;20024;-94
2021/11/11 06:30:35;;;;;;;52.80;27.60;;;4.80;99.90;;;;;;5059961;28;20033;-94
2021/11/11 06:33:00;;;;;;;55.63;27.33;;;4.70;99.90;;;;;;5016864;28;20029;-95
2021/11/11 06:35:31;;;;;;;53.97;26.10;;;5.20;99.90;;;;;;5034562;28;20040;-95
2021/11/11 06:37:58;;;;;;;70.63;28.67;;;4.70;99.90;;;;;;5063632;28;20369;-94
2021/11/11 06:40:24;;;;;;;117.47;29.52;;;5.40;99.90;;;;;;5059151;28;20029;-94
2021/11/11 06:42:50;;;;;;;72.85;29.27;;;4.90;99.90;;;;;;5044293;28;20029;-94
2021/11/11 06:45:16;;;;;;;85.60;27.45;;;4.90;99.90;;;;;;5036640;28;20025;-94
2021/11/11 06:47:42;;;;;;;113.15;31.27;;;5.00;99.90;;;;;;5055626;28;20107;-94
2021/11/11 06:50:09;;;;;;;72.10;32.70;;;4.90;99.90;;;;;;5053218;28;20155;-93
2021/11/11 06:52:36;;;;;;;72.88;36.22;;;5.00;99.90;;;;;;5044346;28;20037;-94
2021/11/11 06:55:02;;;;;;;64.47;32.15;;;5.10;99.90;;;;;;5056615;28;20071;-95
2021/11/11 06:57:28;;;;;;;63.05;34.13;;;5.20;99.90;;;;;;5050825;28;20056;-95
2021/11/11 06:59:53;;;;;;;60.10;30.70;;;5.60;99.90;;;;;;5079970;22;20053;-94
2021/11/11 07:02:19;;;;;;;58.97;28.08;;;5.40;99.90;;;;;;5038756;28;20025;-92
2021/11/11 07:04:45;;;;;;;59.15;29.50;;;5.50;99.90;;;;;;5040147;28;20021;-91
2021/11/11 07:07:11;;;;;;;66.68;33.15;;;5.80;99.90;;;;;;5041040;28;20029;-91
2021/11/11 07:09:36;;;;;;;73.25;31.92;;;5.50;99.90;;;;;;5035896;28;20401;-92
2021/11/11 07:12:02;;;;;;;72.97;30.50;;;5.60;99.90;;;;;;5032813;28;20025;-90
2021/11/11 07:14:28;;;;;;;82.00;32.15;;;5.60;99.90;;;;;;5032972;28;20041;-91
2021/11/11 07:16:54;;;;;;;109.05;31.05;;;5.60;99.90;;;;;;5033620;28;20025;-91
2021/11/11 07:19:20;;;;;;;222.40;32.72;;;5.60;99.90;;;;;;5034105;28;20397;-96
2021/11/11 07:21:45;;;;;;;132.75;34.00;;;5.60;99.90;;;;;;5034988;28;20035;-92
2021/11/11 07:24:11;;;;;;;79.55;31.75;;;5.60;99.90;;;;;;5036487;28;20535;-94
2021/11/11 07:26:36;;;;;;;74.18;30.25;;;5.60;99.90;;;;;;5054096;28;20040;-95
2021/11/11 07:29:02;;;;;;;79.70;29.42;;;5.60;99.90;;;;;;5034433;28;20100;-95
2021/11/11 07:31:28;;;;;;;143.05;31.23;;;5.70;99.90;;;;;;5034268;28;20030;-93
2021/11/11 07:33:54;;;;;;;61.13;29.83;;;5.60;99.90;;;;;;5034272;28;20036;-93
2021/11/11 07:36:20;;;;;;;53.38;29.35;;;5.70;99.90;;;;;;5033655;28;20029;-91
2021/11/11 07:38:45;;;;;;;65.53;29.25;;;5.80;99.90;;;;;;5016655;28;20032;-94
2021/11/11 07:41:11;;;;;;;55.58;29.45;;;5.90;99.90;;;;;;5023366;28;20474;-93
2021/11/11 07:43:37;;;;;;;73.55;30.85;;;5.90;99.90;;;;;;5034149;28;20029;-94
2021/11/11 07:46:07;;;;;;;58.88;27.38;;;6.20;99.90;;;;;;5034292;28;20077;-94
2021/11/11 07:48:34;;;;;;;93.43;30.92;;;5.90;99.90;;;;;;5036830;28;20021;-93
2021/11/11 07:51:00;;;;;;;77.57;31.67;;;5.90;99.90;;;;;;5038373;28;20104;-93
2021/11/11 07:53:29;;;;;;;60.03;28.70;;;6.30;99.90;;;;;;5050714;28;20033;-94
2021/11/11 07:55:55;;;;;;;46.42;25.08;;;6.20;99.90;;;;;;5048503;28;20029;-93
2021/11/11 07:58:21;;;;;;;45.90;24.30;;;6.20;99.90;;;;;;5050480;28;20036;-93
2021/11/11 08:00:47;;;;;;;48.72;24.83;;;6.40;99.90;;;;;;5047443;28;20424;-93
2021/11/11 08:03:12;;;;;;;95.10;45.58;;;6.40;99.90;;;;;;5020153;28;20025;-94
2021/11/11 08:05:40;;;;;;;63.10;31.10;;;6.60;99.90;;;;;;5052547;28;20025;-93
2021/11/11 08:08:07;;;;;;;57.70;32.80;;;6.30;99.90;;;;;;5032411;28;20432;-94
2021/11/11 08:10:33;;;;;;;56.13;29.08;;;6.30;99.90;;;;;;5041352;28;20118;-91
2021/11/11 08:12:59;;;;;;;359.15;92.35;;;6.30;99.90;;;;;;5020267;28;20072;-95
2021/11/11 08:15:25;;;;;;;74.10;38.15;;;6.20;99.90;;;;;;5037210;28;20423;-93
2021/11/11 08:17:51;;;;;;;65.68;31.52;;;6.10;99.90;;;;;;5019738;28;20025;-91
2021/11/11 08:20:18;;;;;;;68.65;29.73;;;6.20;99.90;;;;;;5036290;28;20033;-91
2021/11/11 08:22:45;;;;;;;228.13;33.20;;;6.60;99.90;;;;;;5035718;28;20025;-92
2021/11/11 08:25:12;;;;;;;146.32;32.38;;;6.10;99.90;;;;;;5047310;28;20033;-93
2021/11/11 08:27:40;;;;;;;58.00;28.75;;;6.40;99.90;;;;;;5047899;28;20112;-93
2021/11/11 08:30:08;;;;;;;63.05;29.45;;;6.20;99.90;;;;;;5036092;28;20116;-91
2021/11/11 08:32:34;;;;;;;62.33;29.15;;;6.30;99.90;;;;;;5036502;28;20068;-92
2021/11/11 08:34:59;;;;;;;54.38;27.63;;;6.40;99.90;;;;;;5035732;28;20049;-93
2021/11/11 08:37:25;;;;;;;59.35;28.48;;;6.40;99.90;;;;;;5043306;28;20108;-93
2021/11/11 08:39:51;;;;;;;56.97;28.67;;;6.20;99.90;;;;;;5048782;28;20072;-93
2021/11/11 08:42:17;;;;;;;50.47;28.55;;;6.40;99.90;;;;;;5050771;28;20030;-92
2021/11/11 08:44:44;;;;;;;53.72;29.70;;;6.50;99.90;;;;;;5033863;28;20029;-92
2021/11/11 08:47:15;;;;;;;71.78;29.10;;;6.50;99.90;;;;;;5049391;28;20109;-93
2021/11/11 08:49:43;;;;;;;58.85;30.08;;;6.40;99.90;;;;;;5038720;28;20037;-92
2021/11/11 08:52:10;;;;;;;50.10;28.63;;;6.50;99.90;;;;;;5036647;28;20030;-92
2021/11/11 08:54:36;;;;;;;52.80;28.40;;;6.60;99.90;;;;;;5035877;28;20120;-92
2021/11/11 08:57:02;;;;;;;60.05;30.77;;;6.50;99.90;;;;;;5053029;28;20086;-92
2021/11/11 08:59:28;;;;;;;56.05;31.13;;;6.60;99.90;;;;;;5049873;28;20041;-92
2021/11/11 09:01:54;;;;;;;54.88;29.77;;;6.70;99.90;;;;;;5046351;28;20044;-93
2021/11/11 09:04:21;;;;;;;59.45;31.60;;;6.90;99.90;;;;;;5041379;28;20120;-92
2021/11/11 09:06:47;;;;;;;56.15;30.75;;;6.90;99.90;;;;;;5039258;28;20584;-92
2021/11/11 09:09:13;;;;;;;59.95;30.33;;;6.90;99.90;;;;;;5050626;28;20029;-92
2021/11/11 09:11:39;;;;;;;56.38;29.38;;;7.30;99.90;;;;;;5033139;28;20119;-92
2021/11/11 09:14:06;;;;;;;56.25;30.23;;;7.00;99.90;;;;;;5028910;28;20029;-92
2021/11/11 09:16:33;;;;;;;67.15;31.75;;;7.20;99.90;;;;;;5046667;28;20041;-92
2021/11/11 09:18:59;;;;;;;54.58;30.10;;;7.20;99.90;;;;;;5046229;28;20026;-92
2021/11/11 09:21:26;;;;;;;51.20;30.10;;;7.30;99.90;;;;;;5048782;28;20026;-92
2021/11/11 09:23:51;;;;;;;52.40;30.02;;;7.50;99.90;;;;;;5051254;28;20029;-93
2021/11/11 09:26:17;;;;;;;52.45;30.83;;;7.70;99.90;;;;;;5031753;28;20025;-93
2021/11/11 09:28:44;;;;;;;67.50;38.60;;;7.80;99.90;;;;;;5048532;28;20090;-92
2021/11/11 09:31:11;;;;;;;69.75;46.13;;;7.60;99.90;;;;;;5045001;28;20048;-93
2021/11/11 09:33:41;;;;;;;44.63;27.80;;;7.70;99.90;;;;;;5048312;28;20483;-93
2021/11/11 09:36:07;;;;;;;45.90;28.88;;;7.30;99.90;;;;;;5034578;28;20048;-93
2021/11/11 09:38:33;;;;;;;53.80;30.88;;;7.20;99.90;;;;;;5049576;28;20017;-93
2021/11/11 09:40:59;;;;;;;52.50;30.77;;;7.20;99.90;;;;;;5047989;28;20488;-93
2021/11/11 09:43:25;;;;;;;51.60;29.80;;;7.20;99.90;;;;;;5029638;28;20051;-93
2021/11/11 09:45:51;;;;;;;64.20;39.25;;;7.50;99.90;;;;;;5045344;28;20033;-93
2021/11/11 09:48:17;;;;;;;58.50;33.67;;;8.00;99.90;;;;;;5048795;28;20034;-92
2021/11/11 09:50:45;;;;;;;78.95;47.22;;;8.10;99.90;;;;;;5049979;28;20028;-92
2021/11/11 09:53:20;;;;;;;60.03;33.60;;;8.00;99.90;;;;;;5047367;28;20388;-92
2021/11/11 09:58:38;;;;;;;77.28;46.50;;;7.70;99.90;;;;;;5045955;28;20142;-92
2021/11/11 10:01:10;;;;;;;65.78;37.10;;;8.00;99.90;;;;;;5047010;28;20028;-93
2021/11/11 10:03:41;;;;;;;64.55;37.35;;;7.60;99.90;;;;;;5046799;28;20033;-92
2021/11/11 10:06:12;;;;;;;65.10;38.08;;;7.70;99.90;;;;;;5002007;28;20039;-92
2021/11/11 10:08:43;;;;;;;71.80;41.25;;;7.80;99.90;;;;;;5029563;28;20113;-92
2021/11/11 10:11:27;;;;;;;76.10;43.53;;;7.80;99.90;;;;;;5042950;28;20021;-92
2021/11/11 10:13:58;;;;;;;63.25;38.22;;;8.00;99.90;;;;;;5045618;28;20029;-93
2021/11/11 10:16:24;;;;;;;59.70;34.70;;;8.00;99.90;;;;;;5046815;28;20094;-92
2021/11/11 10:19:01;;;;;;;58.58;34.58;;;8.20;99.90;;;;;;5045532;28;20105;-92
2021/11/11 10:21:56;;;;;;;55.97;33.42;;;8.20;99.90;;;;;;5045426;28;20037;-92
2021/11/11 10:24:35;;;;;;;58.95;34.50;;;8.00;99.90;;;;;;5022365;28;20027;-92
2021/11/11 10:27:03;;;;;;;61.47;36.08;;;8.00;99.90;;;;;;5050023;28;20029;-93
2021/11/11 10:29:37;;;;;;;57.17;34.95;;;8.50;99.90;;;;;;5048918;28;20013;-92
2021/11/11 10:32:21;;;;;;;57.47;34.20;;;8.40;99.90;;;;;;5045010;28;20041;-92
2021/11/11 10:34:52;;;;;;;56.45;32.92;;;8.40;99.90;;;;;;5045043;28;20056;-93
2021/11/11 10:37:19;;;;;;;54.58;32.17;;;8.30;99.90;;;;;;5022872;28;20033;-91
2021/11/11 10:40:12;;;;;;;50.53;31.38;;;8.30;99.90;;;;;;5036087;28;20028;-92
2021/11/11 10:42:44;;;;;;;52.22;31.52;;;8.80;99.90;;;;;;5044525;28;20407;-91
2021/11/11 10:45:20;;;;;;;42.70;28.52;;;9.20;99.90;;;;;;5018264;28;20024;-91
2021/11/11 10:47:52;;;;;;;45.90;28.75;;;10.00;99.90;;;;;;5048489;28;20090;-92
2021/11/11 10:50:45;;;;;;;43.88;28.40;;;10.50;99.90;;;;;;5023460;28;20521;-91
2021/11/11 10:53:18;;;;;;;46.20;29.15;;;10.70;99.90;;;;;;5047220;28;20084;-91
2021/11/11 10:55:49;;;;;;;41.03;27.67;;;10.60;99.90;;;;;;5030053;28;20040;-94
2021/11/11 10:58:16;;;;;;;44.75;29.25;;;10.80;99.90;;;;;;5045846;28;20057;-94
2021/11/11 11:00:54;;;;;;;44.03;28.90;;;11.10;99.90;;;;;;5024037;28;20048;-94
2021/11/11 11:03:26;;;;;;;41.08;26.77;;;11.00;99.90;;;;;;5051442;28;20025;-95
2021/11/11 11:06:00;;;;;;;37.55;24.58;;;11.50;99.90;;;;;;5035170;28;20041;-95
2021/11/11 11:08:29;;;;;;;36.63;24.20;;;11.60;99.90;;;;;;5036655;28;20030;-94
2021/11/11 11:11:07;;;;;;;35.75;24.23;;;12.00;99.90;;;;;;5039627;28;20039;-94
2021/11/11 11:13:45;;;;;;;34.10;24.25;;;12.60;99.90;;;;;;5034735;28;20041;-94
2021/11/11 11:16:12;;;;;;;35.28;23.52;;;13.60;99.90;;;;;;5038242;28;20091;-94
2021/11/11 11:18:42;;;;;;;33.88;22.58;;;14.30;99.90;;;;;;5039280;28;20025;-94
2021/11/11 11:21:12;;;;;;;33.00;22.98;;;14.20;99.90;;;;;;5002065;28;20021;-95
2021/11/11 11:23:41;;;;;;;32.95;23.02;;;14.60;99.90;;;;;;5028980;28;20048;-94
2021/11/11 11:26:23;;;;;;;28.75;21.50;;;14.40;99.90;;;;;;5041076;28;20124;-94
2021/11/11 11:31:42;;;;;;;31.60;23.27;;;13.60;99.90;;;;;;5043199;28;20482;-95
2021/11/11 11:34:12;;;;;;;28.33;21.65;;;13.60;99.90;;;;;;5041503;28;20057;-94
2021/11/11 11:36:42;;;;;;;29.30;21.45;;;14.60;99.90;;;;;;5053495;28;20488;-94
2021/11/11 11:39:09;;;;;;;29.67;22.13;;;14.90;99.90;;;;;;5022298;28;20107;-94
2021/11/11 11:41:44;;;;;;;37.20;25.00;;;14.10;99.90;;;;;;5052487;28;20032;-94
2021/11/11 11:44:35;;;;;;;192.07;74.05;;;16.40;99.90;;;;;;5054977;28;20087;-94
2021/11/11 11:47:10;;;;;;;50.88;28.88;;;17.40;99.90;;;;;;5055296;28;20048;-94
2021/11/11 11:49:38;;;;;;;549.58;198.15;;;15.10;99.90;;;;;;5047977;28;20497;-94
2021/11/11 11:52:06;;;;;;;35.53;26.92;;;13.60;99.90;;;;;;5041302;28;20017;-94
2021/11/11 11:57:14;;;;;;;30.70;22.50;;;15.60;99.90;;;;;;5038617;28;20476;-94
2021/11/11 11:59:45;;;;;;;84.32;57.83;;;15.70;99.90;;;;;;5051820;28;20091;-93
2021/11/11 12:02:19;;;;;;;79.63;54.78;;;16.60;99.90;;;;;;5024457;28;20457;-93
2021/11/11 12:05:03;;;;;;;28.08;22.48;;;17.70;99.90;;;;;;5024199;28;20029;-94
2021/11/11 12:08:16;;;;;;;27.98;21.48;;;19.10;99.90;;;;;;5023872;28;20021;-93
2021/11/11 12:10:29;;;;;;;26.15;21.05;;;20.80;99.90;;;;;;5038381;28;20037;-93
2021/11/11 12:30:13;;;;;;;28.00;22.08;;;18.70;99.90;;;;;;5050694;28;20091;-93
2021/11/11 12:38:43;;;;;;;27.48;22.50;;;20.00;99.90;;;;;;5041910;28;20033;-93
2021/11/11 12:41:15;;;;;;;27.73;22.85;;;19.50;99.90;;;;;;5037877;28;20036;-93
2021/11/11 12:43:42;;;;;;;28.15;22.30;;;18.10;99.90;;;;;;5045974;28;20029;-93
2021/11/11 12:46:42;;;;;;;29.63;24.67;;;16.00;99.90;;;;;;5041532;28;20029;-93
2021/11/11 12:49:24;;;;;;;28.45;24.77;;;15.00;99.90;;;;;;5040810;28;20021;-92
2021/11/11 12:52:20;;;;;;;29.35;23.77;;;16.00;99.90;;;;;;5041434;28;20163;-93
2021/11/11 12:54:46;;;;;;;29.98;23.27;;;17.60;99.90;;;;;;5040732;28;20400;-93
2021/11/11 12:57:13;;;;;;;27.45;22.05;;;17.40;99.90;;;;;;5036408;28;20021;-93
2021/11/11 12:59:40;;;;;;;27.58;22.42;;;16.50;99.90;;;;;;5028471;28;20046;-94
2021/11/11 13:02:09;;;;;;;27.77;23.02;;;17.30;99.90;;;;;;5016103;28;20026;-93
2021/11/11 13:04:55;;;;;;;27.88;21.92;;;17.10;99.90;;;;;;5023919;28;20017;-93
2021/11/11 13:07:33;;;;;;;27.27;22.30;;;17.00;99.90;;;;;;5028018;28;20044;-93
2021/11/11 13:10:19;;;;;;;28.38;23.17;;;16.20;99.90;;;;;;5029364;28;20156;-93
2021/11/11 13:13:08;;;;;;;28.75;23.58;;;15.90;99.90;;;;;;5026152;28;20403;-93
2021/11/11 13:15:44;;;;;;;29.13;24.30;;;16.40;99.90;;;;;;5030831;28;20022;-93
2021/11/11 13:18:10;;;;;;;28.67;23.55;;;15.70;99.90;;;;;;5014689;28;20068;-93
2021/11/11 13:20:53;;;;;;;29.25;24.20;;;16.30;99.90;;;;;;5013002;28;20057;-93
2021/11/11 13:23:28;;;;;;;29.92;23.23;;;17.60;99.90;;;;;;5026683;28;20620;-92
2021/11/11 16:21:32;;;;;;;71.45;44.03;;;10.40;99.90;;;;;;4999955;28;20032;-93
2021/11/11 16:26:24;;;;;;;57.35;37.30;;;10.20;99.90;;;;;;5032480;28;20115;-92
2021/11/11 16:28:53;;;;;;;56.00;36.10;;;10.10;99.90;;;;;;5045375;28;20029;-93
2021/11/11 16:31:20;;;;;;;53.17;35.88;;;10.00;99.90;;;;;;5045864;28;20037;-93
2021/11/11 16:33:47;;;;;;;67.68;41.90;;;9.90;99.90;;;;;;5031378;28;20095;-93
2021/11/11 16:36:13;;;;;;;55.00;35.30;;;10.20;99.90;;;;;;5050609;28;20104;-93